Time;durP1;ratioP1;P1;durP2;ratioP2;P2;SDS_P1;SDS_P2;PMS_P1;PMS_P2;Temp;Humidity;BMP_temperature;BMP_pressure;BME280_temperature;BME280_humidity;BME280_pressure;Samples;Min_cycle;Max_cycle;Signal;HPM_P1;HPM_P2
2023/03/17 00:00:20;;;;;;;10.18;1.90;;;;;;;12.64;43.63;98411.72;5075565;28;20024;-51
2023/03/17 00:02:48;;;;;;;8.85;1.70;;;;;;;12.75;43.12;98423.31;5075526;28;20039;-51
2023/03/17 00:05:26;;;;;;;7.55;1.80;;;;;;;12.59;43.66;98422.09;5075493;28;20024;-49
2023/03/17 00:07:54;;;;;;;10.00;2.17;;;;;;;12.63;44.09;98415.34;5093548;28;20111;-50
2023/03/17 00:10:22;;;;;;;8.75;2.13;;;;;;;12.74;44.00;98434.91;5093811;28;20117;-49
2023/03/17 00:12:54;;;;;;;12.35;2.70;;;;;;;12.69;44.62;98432.91;5075401;28;20020;-49
2023/03/17 00:15:21;;;;;;;11.32;2.33;;;;;;;12.65;44.62;98430.94;5092973;28;20027;-49
2023/03/17 00:17:48;;;;;;;10.55;2.65;;;;;;;12.71;44.29;98446.66;5093402;28;20023;-50
2023/03/17 00:20:26;;;;;;;7.65;2.25;;;;;;;12.65;44.38;98444.91;5093370;28;20024;-49
2023/03/17 00:22:56;;;;;;;8.95;1.27;;;;;;;12.56;45.23;98440.97;5075209;28;20067;-49
2023/03/17 00:25:26;;;;;;;5.90;1.30;;;;;;;12.65;44.21;98433.56;5075859;28;20028;-49
2023/03/17 00:27:52;;;;;;;12.13;2.47;;;;;;;12.55;44.98;98429.59;5093275;28;20024;-49
2023/03/17 00:30:18;;;;;;;5.45;2.17;;;;;;;12.52;44.87;98424.78;5093160;28;20058;-49
2023/03/17 00:32:45;;;;;;;9.13;3.30;;;;;;;12.47;44.80;98426.47;5074993;28;20109;-52
2023/03/17 00:35:17;;;;;;;9.02;2.05;;;;;;;12.58;44.08;98431.81;5074835;28;20074;-52
2023/03/17 00:37:44;;;;;;;6.80;2.80;;;;;;;12.55;44.17;98439.34;5074783;28;20030;-52
2023/03/17 00:40:24;;;;;;;9.60;2.80;;;;;;;12.46;43.91;98420.41;5093032;28;20486;-52
2023/03/17 00:42:51;;;;;;;3.92;1.48;;;;;;;12.43;43.14;98412.13;5093093;28;20028;-52
2023/03/17 00:45:18;;;;;;;11.73;2.58;;;;;;;12.19;43.54;98414.59;5093161;28;20474;-52
2023/03/17 00:47:44;;;;;;;4.82;1.42;;;;;;;12.12;43.83;98448.88;5075177;28;20394;-52
2023/03/17 00:50:18;;;;;;;15.18;2.40;;;;;;;12.02;44.41;98414.34;5054421;28;20074;-52
2023/03/17 00:52:45;;;;;;;7.13;1.70;;;;;;;12.04;43.50;98395.75;5071285;28;20034;-52
2023/03/17 00:55:11;;;;;;;4.22;1.23;;;;;;;12.10;43.10;98437.75;5072438;28;20104;-52
2023/03/17 00:57:38;;;;;;;6.18;1.65;;;;;;;12.08;43.22;98418.75;5072274;28;20024;-52
2023/03/17 01:00:16;;;;;;;10.60;2.00;;;;;;;12.02;42.92;98424.09;5072347;28;20532;-52
2023/03/17 01:02:42;;;;;;;4.97;1.60;;;;;;;11.91;43.67;98433.47;5072665;28;20366;-52
2023/03/17 01:05:07;;;;;;;7.10;1.50;;;;;;;12.07;42.94;98438.16;5054374;28;20032;-52
2023/03/17 01:07:34;;;;;;;11.10;1.88;;;;;;;12.09;42.59;98436.16;5071203;28;20040;-52
2023/03/17 01:10:00;;;;;;;7.15;1.90;;;;;;;12.10;43.07;98429.06;5071074;28;20489;-52
2023/03/17 01:12:26;;;;;;;11.77;2.70;;;;;;;12.12;43.26;98438.34;5072089;28;20103;-52
2023/03/17 01:14:52;;;;;;;8.95;4.25;;;;;;;12.14;42.74;98438.13;5072090;28;20052;-52
2023/03/17 01:17:18;;;;;;;14.45;3.80;;;;;;;12.09;43.25;98430.91;5070665;28;20056;-49
2023/03/17 01:19:45;;;;;;;9.20;2.03;;;;;;;12.13;42.53;98431.25;5070732;28;20432;-50
2023/03/17 01:22:11;;;;;;;7.47;1.90;;;;;;;12.16;42.66;98457.94;5070687;28;20024;-49
2023/03/17 01:24:38;;;;;;;7.40;1.60;;;;;;;12.17;42.30;98427.16;5054047;28;20493;-50
2023/03/17 01:27:05;;;;;;;5.85;2.00;;;;;;;12.33;42.14;98436.31;5071084;28;20081;-49
2023/03/17 01:29:32;;;;;;;6.13;1.27;;;;;;;12.42;41.81;98423.69;5071927;28;20020;-49
2023/03/17 01:31:58;;;;;;;11.68;2.40;;;;;;;12.42;41.96;98405.28;5053826;28;20017;-49
2023/03/17 01:34:24;;;;;;;6.22;1.90;;;;;;;12.49;41.03;98416.53;5071802;28;20078;-50
2023/03/17 01:36:50;;;;;;;6.38;1.77;;;;;;;12.51;40.20;98406.59;5070448;28;20107;-50
2023/03/17 01:39:15;;;;;;;6.78;1.33;;;;;;;12.52;41.33;98421.38;5070502;28;20020;-49
2023/03/17 01:41:41;;;;;;;11.88;3.25;;;;;;;12.48;41.04;98399.13;5071819;28;20031;-49
2023/03/17 01:44:17;;;;;;;13.10;5.07;;;;;;;12.47;41.67;98406.22;5071755;28;20029;-49
2023/03/17 01:46:44;;;;;;;4.75;1.30;;;;;;;12.61;40.68;98406.06;5070916;28;20051;-49
2023/03/17 01:49:24;;;;;;;6.97;1.88;;;;;;;12.58;40.60;98412.59;5077231;28;20130;-50
2023/03/17 01:52:11;;;;;;;8.45;2.38;;;;;;;12.61;40.61;98409.50;5073767;28;20027;-49
2023/03/17 01:55:00;;;;;;;10.52;2.42;;;;;;;12.52;40.53;98418.72;5073734;28;20112;-51
2023/03/17 01:57:41;;;;;;;5.88;1.52;;;;;;;12.45;40.50;98400.38;5073555;28;20062;-52
2023/03/17 02:00:11;;;;;;;7.07;1.40;;;;;;;12.53;38.86;98413.22;5073737;28;20039;-52
2023/03/17 02:02:43;;;;;;;20.75;15.38;;;;;;;12.49;39.18;98406.78;5073752;28;20027;-49
2023/03/17 02:05:11;;;;;;;10.25;4.38;;;;;;;12.61;40.63;98401.59;5073601;28;20031;-49
2023/03/17 02:07:38;;;;;;;11.85;3.28;;;;;;;12.68;41.30;98397.09;5091753;28;20024;-49
2023/03/17 02:10:05;;;;;;;7.07;2.95;;;;;;;12.63;41.67;98389.03;5073673;28;20043;-50
2023/03/17 02:12:34;;;;;;;11.50;2.83;;;;;;;12.59;41.54;98393.91;5073497;28;20027;-49
2023/03/17 02:15:00;;;;;;;7.18;2.28;;;;;;;12.66;40.25;98390.44;5091883;28;20032;-49
2023/03/17 02:17:27;;;;;;;10.15;2.58;;;;;;;12.79;40.16;98388.41;5057026;28;20028;-49
2023/03/17 02:19:55;;;;;;;5.43;1.60;;;;;;;12.92;39.30;98408.53;5091687;28;20078;-49
2023/03/17 02:22:20;;;;;;;9.73;2.45;;;;;;;12.92;39.26;98379.56;5091634;28;20024;-50
2023/03/17 02:24:57;;;;;;;5.38;1.80;;;;;;;12.83;39.05;98388.00;5091845;28;20023;-49
2023/03/17 02:27:34;;;;;;;21.88;3.85;;;;;;;12.66;39.42;98382.53;5073443;28;20067;-49
2023/03/17 02:30:00;;;;;;;7.38;3.38;;;;;;;12.79;39.39;98377.88;5091654;28;20028;-49
2023/03/17 02:32:26;;;;;;;7.15;2.10;;;;;;;12.87;39.50;98383.88;5073383;28;20032;-49
2023/03/17 02:34:52;;;;;;;7.13;2.15;;;;;;;12.85;39.17;98386.72;5073458;28;20012;-49
2023/03/17 02:37:18;;;;;;;10.75;2.88;;;;;;;12.79;39.10;98367.34;5073260;28;20044;-49
2023/03/17 02:39:45;;;;;;;4.88;1.40;;;;;;;12.68;39.46;98373.38;5076643;28;20067;-49
2023/03/17 02:42:11;;;;;;;12.18;1.73;;;;;;;12.51;38.89;98362.63;5095520;28;20052;-49
2023/03/17 02:44:37;;;;;;;6.53;2.13;;;;;;;12.46;38.72;98357.25;5095313;28;20373;-50
2023/03/17 02:47:03;;;;;;;8.70;2.05;;;;;;;12.24;39.38;98361.34;5095491;28;20028;-49
2023/03/17 02:49:30;;;;;;;7.78;2.00;;;;;;;12.27;39.34;98358.25;5094951;28;20539;-49
2023/03/17 02:51:56;;;;;;;4.68;1.73;;;;;;;12.34;39.16;98349.28;5076863;28;20562;-49
2023/03/17 02:54:22;;;;;;;11.07;2.00;;;;;;;12.38;39.57;98358.34;5076902;28;20480;-49
2023/03/17 02:56:48;;;;;;;11.38;1.95;;;;;;;12.47;37.80;98348.31;5094947;28;20056;-49
2023/03/17 02:59:13;;;;;;;7.95;1.88;;;;;;;12.46;37.68;98348.56;5095015;28;20020;-49
2023/03/17 03:01:42;;;;;;;7.63;1.50;;;;;;;12.45;37.27;98358.25;5076687;28;20063;-49
2023/03/17 03:04:07;;;;;;;6.70;1.67;;;;;;;12.38;37.15;98366.22;5076621;28;20043;-49
2023/03/17 03:06:34;;;;;;;4.38;1.48;;;;;;;12.27;37.20;98361.69;5077024;28;20489;-50
2023/03/17 03:09:00;;;;;;;5.00;1.30;;;;;;;12.17;37.54;98379.81;5095011;28;20028;-49
2023/03/17 03:11:26;;;;;;;6.50;4.45;;;;;;;12.12;37.90;98377.84;5076556;28;20024;-49
2023/03/17 03:13:51;;;;;;;7.90;1.90;;;;;;;12.17;37.95;98364.84;5076453;28;20016;-49
2023/03/17 03:16:17;;;;;;;4.68;1.90;;;;;;;12.23;37.70;98370.25;5076378;28;20400;-50
2023/03/17 03:18:42;;;;;;;11.32;2.22;;;;;;;12.26;38.21;98348.78;5094607;28;20050;-49
2023/03/17 03:21:09;;;;;;;4.30;1.25;;;;;;;12.36;38.40;98362.22;5076345;28;20028;-49
2023/03/17 03:23:35;;;;;;;6.38;2.13;;;;;;;12.30;37.54;98363.09;5094476;28;20062;-49
2023/03/17 03:26:01;;;;;;;2.80;1.00;;;;;;;12.25;38.69;98365.56;5076313;28;20016;-49
2023/03/17 03:28:26;;;;;;;6.72;1.35;;;;;;;12.22;38.02;98368.66;5076235;28;20032;-52
2023/03/17 03:30:52;;;;;;;7.47;1.50;;;;;;;12.10;38.61;98366.72;5076213;28;20027;-50
2023/03/17 03:33:18;;;;;;;6.38;1.60;;;;;;;12.15;38.96;98372.16;5094629;28;20108;-49
2023/03/17 03:35:44;;;;;;;5.47;2.05;;;;;;;12.20;39.06;98371.50;5094289;28;20021;-49
2023/03/17 03:38:11;;;;;;;4.28;1.58;;;;;;;12.21;38.82;98359.94;5094172;28;20055;-51
2023/03/17 03:40:36;;;;;;;10.48;2.45;;;;;;;12.08;38.88;98360.09;5076027;28;20054;-52
2023/03/17 03:43:03;;;;;;;5.25;1.63;;;;;;;12.12;38.86;98372.56;5094136;28;20489;-49
2023/03/17 03:45:29;;;;;;;8.45;1.55;;;;;;;12.01;38.38;98365.41;5094037;28;20428;-52
2023/03/17 03:47:55;;;;;;;6.18;1.60;;;;;;;11.94;39.27;98369.94;5075931;28;20042;-51
2023/03/17 03:50:21;;;;;;;6.07;2.00;;;;;;;12.04;38.91;98370.22;5074709;28;20039;-49
2023/03/17 03:52:46;;;;;;;4.22;1.45;;;;;;;12.10;38.73;98381.72;5075819;28;20111;-49
2023/03/17 03:55:12;;;;;;;5.63;1.33;;;;;;;11.99;38.82;98375.31;5093881;28;20106;-49
2023/03/17 03:57:38;;;;;;;7.75;1.58;;;;;;;11.89;38.39;98382.91;5093758;28;20435;-49
2023/03/17 04:00:06;;;;;;;6.72;1.60;;;;;;;11.87;38.70;98384.91;5093809;28;20032;-50
2023/03/17 04:02:32;;;;;;;10.50;1.77;;;;;;;11.83;38.73;98389.00;5094001;28;20550;-49
2023/03/17 04:04:58;;;;;;;4.60;1.33;;;;;;;11.76;38.54;98397.75;5093742;28;20032;-49
2023/03/17 04:07:24;;;;;;;5.50;1.65;;;;;;;11.67;38.58;98361.44;5075482;28;20050;-49
2023/03/17 04:09:50;;;;;;;4.32;1.55;;;;;;;11.65;39.63;98376.59;5075489;28;20519;-49
2023/03/17 04:12:16;;;;;;;6.20;1.58;;;;;;;11.75;37.93;98380.38;5093503;28;20078;-49
2023/03/17 04:14:43;;;;;;;4.28;1.38;;;;;;;11.67;38.68;98387.72;5093489;28;20032;-49
2023/03/17 04:17:12;;;;;;;5.25;1.50;;;;;;;11.59;39.15;98381.72;5093621;28;20385;-49
2023/03/17 04:19:39;;;;;;;3.50;0.95;;;;;;;11.74;39.33;98388.47;5093445;28;20028;-49
2023/03/17 04:22:07;;;;;;;5.32;1.10;;;;;;;11.74;39.12;98388.47;5093615;28;20048;-49
2023/03/17 04:24:34;;;;;;;4.72;1.60;;;;;;;11.78;38.96;98400.97;5093378;28;20107;-51
2023/03/17 04:27:01;;;;;;;7.55;1.48;;;;;;;11.80;38.26;98392.88;5093318;28;20084;-52
2023/03/17 04:29:27;;;;;;;10.70;1.92;;;;;;;11.78;38.76;98400.97;5075066;28;20031;-52
2023/03/17 04:31:53;;;;;;;5.20;1.52;;;;;;;11.89;38.87;98389.00;5093288;28;20047;-52
2023/03/17 04:34:19;;;;;;;8.10;3.17;;;;;;;12.02;38.19;98392.53;5075137;28;20024;-52
2023/03/17 04:36:46;;;;;;;9.88;1.63;;;;;;;12.00;37.70;98387.47;5093026;28;20401;-52
2023/03/17 04:39:13;;;;;;;5.70;1.40;;;;;;;11.94;37.54;98386.50;5093082;28;20028;-52
2023/03/17 04:41:38;;;;;;;10.60;1.58;;;;;;;11.77;38.72;98395.91;5074804;28;20492;-52
2023/03/17 04:44:04;;;;;;;8.50;1.88;;;;;;;11.77;38.25;98362.56;5092937;28;20113;-52
2023/03/17 04:46:31;;;;;;;5.57;1.10;;;;;;;11.73;38.17;98378.97;5092953;28;20048;-52
2023/03/17 04:48:56;;;;;;;5.95;1.60;;;;;;;11.60;39.01;98380.69;5074171;28;20043;-52
2023/03/17 04:51:22;;;;;;;3.40;1.00;;;;;;;11.50;38.79;98392.72;5074666;28;20036;-52
2023/03/17 04:53:48;;;;;;;2.90;1.05;;;;;;;11.49;38.56;98377.94;5074561;28;20132;-52
2023/03/17 04:56:14;;;;;;;8.20;1.50;;;;;;;11.42;38.69;98398.22;5092728;28;20389;-52
2023/03/17 04:58:40;;;;;;;6.20;1.73;;;;;;;11.45;39.19;98379.38;5074459;28;20039;-52
2023/03/17 05:01:06;;;;;;;6.97;1.40;;;;;;;11.55;38.81;98371.81;5074360;28;20022;-52
2023/03/17 05:03:32;;;;;;;9.43;0.90;;;;;;;11.60;38.06;98387.78;5074422;28;20035;-52
2023/03/17 05:05:58;;;;;;;8.73;2.10;;;;;;;11.55;38.39;98375.28;5074371;28;20024;-52
2023/03/17 05:08:27;;;;;;;7.53;1.60;;;;;;;11.56;39.12;98383.97;5092530;28;20028;-52
2023/03/17 05:10:53;;;;;;;9.13;1.40;;;;;;;11.59;38.60;98388.81;5092527;28;20048;-52
2023/03/17 05:13:20;;;;;;;7.28;1.75;;;;;;;11.55;38.73;98387.59;5092372;28;20447;-52
2023/03/17 05:15:47;;;;;;;2.45;1.17;;;;;;;11.60;38.80;98379.88;5092375;28;20031;-52
2023/03/17 05:18:15;;;;;;;5.25;1.30;;;;;;;11.61;38.82;98378.88;5092300;28;20031;-52
2023/03/17 05:20:40;;;;;;;4.00;1.40;;;;;;;11.60;39.24;98380.69;5092256;28;20100;-52
2023/03/17 05:23:06;;;;;;;5.90;1.30;;;;;;;11.68;38.67;98386.72;5074096;28;20111;-52
2023/03/17 05:25:32;;;;;;;4.20;1.40;;;;;;;11.67;38.80;98400.84;5074064;28;20024;-52
2023/03/17 05:27:57;;;;;;;2.60;0.93;;;;;;;11.62;38.92;98403.34;5092284;28;20024;-52
2023/03/17 05:30:24;;;;;;;6.60;1.95;;;;;;;11.66;39.47;98401.88;5092170;28;20508;-52
2023/03/17 05:32:50;;;;;;;4.00;1.23;;;;;;;11.64;39.17;98402.09;5092375;28;20024;-52
2023/03/17 05:35:17;;;;;;;3.72;1.40;;;;;;;11.54;39.11;98407.03;5092097;28;20020;-52
2023/03/17 05:37:43;;;;;;;7.53;1.63;;;;;;;11.45;40.04;98408.28;5091960;28;20055;-52
2023/03/17 05:40:11;;;;;;;6.72;1.30;;;;;;;11.42;40.31;98398.22;5073973;28;20402;-52
2023/03/17 05:42:37;;;;;;;5.35;1.65;;;;;;;11.47;40.47;98406.25;5092080;28;20443;-52
2023/03/17 05:45:04;;;;;;;6.18;1.50;;;;;;;11.47;40.36;98407.09;5073951;28;20031;-52
2023/03/17 05:47:32;;;;;;;6.68;2.03;;;;;;;11.54;40.62;98407.03;5091901;28;20076;-52
2023/03/17 05:49:59;;;;;;;12.63;1.85;;;;;;;11.58;40.15;98406.38;5091667;28;20097;-52
2023/03/17 05:52:25;;;;;;;7.10;1.85;;;;;;;11.71;40.50;98404.66;5091906;28;20056;-52
2023/03/17 05:54:52;;;;;;;5.50;1.83;;;;;;;11.74;39.04;98394.53;5073746;28;20125;-52
2023/03/17 05:57:18;;;;;;;7.60;1.90;;;;;;;11.72;39.79;98398.41;5091779;28;20016;-52
2023/03/17 05:59:44;;;;;;;3.53;1.15;;;;;;;11.83;39.01;98395.09;5091839;28;20382;-52
2023/03/17 06:02:10;;;;;;;6.35;1.77;;;;;;;11.89;39.07;98396.88;5073770;28;20024;-52
2023/03/17 06:04:36;;;;;;;5.28;1.52;;;;;;;11.89;39.41;98396.88;5091808;28;20032;-52
2023/03/17 06:07:03;;;;;;;7.55;2.13;;;;;;;11.94;39.53;98388.34;5091734;28;20128;-51
2023/03/17 06:09:30;;;;;;;7.90;1.00;;;;;;;11.95;38.54;98393.38;5091755;28;20482;-51
2023/03/17 06:11:55;;;;;;;6.18;1.20;;;;;;;11.84;38.67;98386.16;5091729;28;20076;-52
2023/03/17 06:14:21;;;;;;;3.85;2.10;;;;;;;11.89;38.92;98394.25;5076371;28;20024;-52
2023/03/17 06:16:47;;;;;;;7.53;1.33;;;;;;;11.91;38.75;98397.47;5095749;28;20388;-52
2023/03/17 06:19:12;;;;;;;4.03;1.45;;;;;;;12.04;38.59;98398.38;5095835;28;20031;-52
2023/03/17 06:21:38;;;;;;;4.57;1.63;;;;;;;12.08;38.83;98408.22;5077522;28;20082;-52
2023/03/17 06:24:04;;;;;;;4.90;1.35;;;;;;;12.17;37.63;98393.78;5095729;28;20039;-52
2023/03/17 06:26:29;;;;;;;3.13;1.65;;;;;;;12.31;37.36;98389.16;5095959;28;20016;-52
2023/03/17 06:28:55;;;;;;;3.50;1.60;;;;;;;12.42;37.21;98392.13;5095556;28;20058;-51
2023/03/17 06:31:21;;;;;;;9.90;1.77;;;;;;;12.49;37.40;98398.91;5095521;28;20030;-51
2023/03/17 06:33:47;;;;;;;3.88;1.55;;;;;;;12.56;37.44;98404.09;5060750;28;20028;-52
2023/03/17 06:36:13;;;;;;;7.07;2.30;;;;;;;12.60;36.56;98400.00;5095346;28;20025;-49
2023/03/17 06:38:39;;;;;;;7.43;1.83;;;;;;;12.69;36.32;98398.66;5077121;28;20035;-49
2023/03/17 06:41:05;;;;;;;7.18;1.92;;;;;;;12.98;36.54;98391.03;5077162;28;20043;-50
2023/03/17 06:43:31;;;;;;;8.07;2.25;;;;;;;13.39;35.65;98387.63;5077166;28;20024;-49
2023/03/17 06:45:57;;;;;;;3.65;1.00;;;;;;;13.79;34.10;98388.84;5095526;28;20437;-50
2023/03/17 06:48:23;;;;;;;8.80;1.92;;;;;;;13.93;33.91;98394.72;5077146;28;20117;-49
2023/03/17 06:50:49;;;;;;;7.75;1.33;;;;;;;14.05;33.54;98392.09;5094977;28;20489;-49
2023/03/17 06:53:15;;;;;;;5.45;1.73;;;;;;;14.12;33.65;98390.91;5076963;28;20070;-49
2023/03/17 06:55:41;;;;;;;8.43;1.45;;;;;;;14.16;33.36;98386.78;5095128;28;20027;-49
2023/03/17 06:58:09;;;;;;;7.30;1.33;;;;;;;14.44;32.69;98381.81;5076684;28;20107;-49
2023/03/17 07:00:37;;;;;;;7.30;1.27;;;;;;;14.57;31.67;98371.84;5094990;28;20020;-50
2023/03/17 07:03:04;;;;;;;5.40;0.93;;;;;;;14.65;31.58;98393.63;5095144;28;20028;-50
2023/03/17 07:05:31;;;;;;;5.50;1.27;;;;;;;14.84;30.58;98370.50;5094881;28;20063;-49
2023/03/17 07:07:56;;;;;;;5.40;1.50;;;;;;;15.01;30.67;98381.09;5094857;28;20016;-49
2023/03/17 07:10:23;;;;;;;5.35;2.05;;;;;;;15.37;30.92;98379.88;5094794;28;20016;-50
2023/03/17 07:12:49;;;;;;;3.67;1.40;;;;;;;16.03;29.58;98374.06;5060058;28;20020;-50
2023/03/17 07:15:16;;;;;;;2.88;1.45;;;;;;;16.45;28.54;98394.75;5094739;28;20100;-49
2023/03/17 07:17:42;;;;;;;4.25;1.30;;;;;;;16.83;27.78;98372.69;5094511;28;20052;-49
2023/03/17 07:20:09;;;;;;;3.28;1.27;;;;;;;16.88;27.15;98380.72;5076433;28;20063;-50
2023/03/17 07:22:35;;;;;;;5.85;1.33;;;;;;;17.09;27.62;98372.97;5094631;28;20581;-49
2023/03/17 07:25:00;;;;;;;2.38;1.13;;;;;;;17.43;26.46;98370.91;5075118;28;20024;-49
2023/03/17 07:27:26;;;;;;;5.38;1.13;;;;;;;17.60;26.13;98360.13;5076406;28;20587;-49
2023/03/17 07:29:52;;;;;;;5.57;1.77;;;;;;;17.71;25.98;98364.47;5076699;28;20055;-49
2023/03/17 07:32:18;;;;;;;12.15;1.50;;;;;;;17.83;26.17;98366.97;5076470;28;20497;-50
2023/03/17 07:34:43;;;;;;;11.93;2.00;;;;;;;18.48;25.08;98358.81;5059513;28;20024;-49
2023/03/17 07:37:09;;;;;;;7.05;1.33;;;;;;;18.77;24.58;98367.16;5094213;28;20047;-49
2023/03/17 07:39:35;;;;;;;3.67;1.27;;;;;;;19.03;24.07;98364.59;5094295;28;20032;-47
2023/03/17 07:42:01;;;;;;;7.35;1.10;;;;;;;19.14;23.39;98348.38;5094186;28;20104;-47
2023/03/17 07:44:27;;;;;;;1.50;0.95;;;;;;;19.32;23.08;98354.28;5094205;28;20069;-47
2023/03/17 07:46:53;;;;;;;6.70;1.42;;;;;;;19.36;23.00;98353.47;5075879;28;20579;-47
2023/03/17 07:49:20;;;;;;;8.60;1.70;;;;;;;19.74;23.29;98358.56;5072317;28;20037;-47
2023/03/17 07:51:45;;;;;;;7.45;1.65;;;;;;;20.22;22.27;98358.16;5073750;28;20059;-47
2023/03/17 07:54:12;;;;;;;2.50;1.10;;;;;;;20.35;21.54;98360.25;5072376;28;20067;-47
2023/03/17 07:56:39;;;;;;;9.93;1.58;;;;;;;20.00;21.81;98347.84;5072337;28;20033;-46
2023/03/17 07:59:09;;;;;;;7.28;1.75;;;;;;;19.97;22.47;98348.38;5072341;28;20032;-46
2023/03/17 08:01:35;;;;;;;6.05;1.23;;;;;;;20.35;21.38;98352.28;5073809;28;20036;-47
2023/03/17 08:04:03;;;;;;;8.98;1.30;;;;;;;20.64;20.95;98365.75;5073430;28;20021;-47
2023/03/17 08:06:30;;;;;;;2.38;1.00;;;;;;;20.95;20.78;98353.06;5073386;28;20032;-47
2023/03/17 08:08:55;;;;;;;4.35;1.10;;;;;;;21.23;20.25;98364.09;5073414;28;20111;-47
2023/03/17 08:11:22;;;;;;;5.57;1.25;;;;;;;21.15;20.32;98349.47;5073393;28;20509;-47
2023/03/17 08:13:48;;;;;;;7.07;1.42;;;;;;;21.10;20.50;98359.38;5073274;28;20074;-47
2023/03/17 08:16:15;;;;;;;10.73;1.65;;;;;;;21.22;19.75;98345.69;5072018;28;20028;-47
2023/03/17 08:18:40;;;;;;;6.78;1.60;;;;;;;21.18;20.26;98355.31;5071868;28;20027;-47
2023/03/17 08:21:06;;;;;;;3.65;1.05;;;;;;;21.70;19.63;98359.22;5071839;28;20021;-46
2023/03/17 08:23:32;;;;;;;3.83;1.17;;;;;;;22.10;18.83;98350.00;5071932;28;20074;-47
2023/03/17 08:26:02;;;;;;;1.02;0.65;;;;;;;21.72;18.16;98363.19;5073282;28;20401;-47
2023/03/17 08:28:29;;;;;;;3.72;1.20;;;;;;;21.35;18.89;98377.88;5071744;28;20024;-47
2023/03/17 08:31:12;;;;;;;1.63;1.05;;;;;;;21.62;18.99;98376.63;5071656;28;20020;-47
2023/03/17 08:33:39;;;;;;;6.47;1.00;;;;;;;22.16;18.38;98380.13;5056156;28;20028;-47
2023/03/17 08:36:08;;;;;;;11.57;1.55;;;;;;;22.63;18.42;98383.88;5054727;28;20533;-47
2023/03/17 08:38:38;;;;;;;3.72;0.70;;;;;;;23.62;17.51;98373.38;5071399;28;20509;-48
2023/03/17 08:41:06;;;;;;;12.27;1.20;;;;;;;24.22;17.46;98368.03;5071651;28;20033;-47
2023/03/17 08:43:34;;;;;;;10.13;1.05;;;;;;;23.84;16.20;98370.09;5054858;28;20064;-47
2023/03/17 08:46:06;;;;;;;2.10;0.93;;;;;;;22.71;17.39;98375.22;5072891;28;20016;-47
2023/03/17 08:48:34;;;;;;;9.85;1.20;;;;;;;22.46;17.72;98357.63;5071434;28;20028;-48
2023/03/17 08:51:00;;;;;;;4.88;1.20;;;;;;;21.97;16.90;98336.50;5074592;28;20401;-47
2023/03/17 08:53:26;;;;;;;7.43;1.00;;;;;;;21.62;17.56;98375.84;5074647;28;20028;-47
2023/03/17 08:55:55;;;;;;;1.45;0.70;;;;;;;21.62;17.81;98336.56;5092660;28;20019;-47
2023/03/17 08:58:21;;;;;;;1.25;0.63;;;;;;;21.83;18.05;98360.41;5074457;28;20051;-47
2023/03/17 09:00:47;;;;;;;4.20;1.20;;;;;;;22.64;17.55;98369.44;5092633;28;20027;-47
2023/03/17 09:03:14;;;;;;;1.80;1.10;;;;;;;23.13;16.43;98344.16;5092722;28;20133;-47
2023/03/17 09:05:41;;;;;;;1.45;0.73;;;;;;;22.88;16.40;98393.47;5092627;28;20071;-47
2023/03/17 09:08:08;;;;;;;6.75;1.00;;;;;;;22.48;17.01;98355.47;5092532;28;20020;-47
2023/03/17 09:10:34;;;;;;;1.83;0.90;;;;;;;22.91;16.25;98341.25;5057852;28;20489;-47
2023/03/17 09:13:02;;;;;;;2.45;0.70;;;;;;;23.26;15.72;98393.50;5074518;28;20065;-47
2023/03/17 09:15:36;;;;;;;2.75;0.80;;;;;;;23.21;16.11;98364.13;5092621;28;20020;-47
2023/03/17 09:18:02;;;;;;;4.30;1.05;;;;;;;22.20;16.29;98337.59;5092397;28;20485;-47
2023/03/17 09:20:28;;;;;;;6.88;0.80;;;;;;;21.58;16.89;98348.09;5092351;28;20032;-47
2023/03/17 09:22:55;;;;;;;1.40;0.80;;;;;;;21.53;17.16;98368.44;5092289;28;20523;-47
2023/03/17 09:25:20;;;;;;;2.03;0.73;;;;;;;22.51;16.44;98356.75;5092229;28;20035;-47
2023/03/17 09:27:46;;;;;;;1.67;0.70;;;;;;;23.16;16.34;98364.22;5092487;28;20024;-47
2023/03/17 09:30:12;;;;;;;4.10;1.00;;;;;;;23.19;16.12;98360.94;5073963;28;20028;-47
2023/03/17 09:32:39;;;;;;;2.53;0.70;;;;;;;22.59;16.07;98379.41;5092384;28;20389;-47
2023/03/17 09:35:05;;;;;;;1.73;0.70;;;;;;;22.19;16.05;98358.16;5092156;28;20389;-47
2023/03/17 09:37:33;;;;;;;7.07;1.38;;;;;;;21.34;17.86;98375.50;5092056;28;20093;-47
2023/03/17 09:39:59;;;;;;;3.53;0.93;;;;;;;21.69;17.36;98374.44;5092045;28;20043;-47
2023/03/17 09:42:48;;;;;;;5.60;1.48;;;;;;;22.41;17.18;98392.44;5073969;28;20435;-47
2023/03/17 09:45:33;;;;;;;4.20;0.95;;;;;;;22.29;16.60;98392.03;5092257;28;20024;-47
2023/03/17 09:48:05;;;;;;;16.17;1.08;;;;;;;22.48;16.38;98418.88;5091245;28;20016;-47
2023/03/17 09:50:47;;;;;;;2.47;1.15;;;;;;;22.08;17.41;98410.94;5091670;28;20456;-47
2023/03/17 09:53:27;;;;;;;2.72;1.02;;;;;;;22.22;17.02;98429.78;5092258;28;20028;-48
2023/03/17 09:55:57;;;;;;;4.80;1.38;;;;;;;22.25;17.37;98407.06;5091888;28;20032;-47
2023/03/17 09:58:34;;;;;;;2.70;0.90;;;;;;;22.08;16.92;98391.44;5057402;28;20039;-47
2023/03/17 10:01:02;;;;;;;1.90;0.85;;;;;;;21.93;17.82;98437.81;5073700;28;20503;-47
2023/03/17 10:03:28;;;;;;;6.60;1.40;;;;;;;21.91;18.84;98410.56;5091849;28;20052;-47
2023/03/17 10:06:10;;;;;;;7.00;0.98;;;;;;;22.67;18.86;98408.19;5073614;28;20066;-47
2023/03/17 10:08:45;;;;;;;1.85;0.43;;;;;;;23.22;16.99;98413.94;5075681;28;20016;-47
2023/03/17 10:11:27;;;;;;;4.78;1.05;;;;;;;23.24;17.82;98417.09;5073838;28;20032;-47
2023/03/17 10:13:56;;;;;;;3.72;1.00;;;;;;;24.11;17.93;98429.13;5073592;28;20039;-47
2023/03/17 10:16:41;;;;;;;3.17;1.20;;;;;;;24.64;15.82;98409.09;5091778;28;20020;-47
2023/03/17 10:19:43;;;;;;;5.95;1.08;;;;;;;25.30;16.29;98408.81;5073701;28;20043;-47
2023/03/17 10:22:18;;;;;;;11.70;2.05;;;;;;;26.30;15.84;98397.72;5048136;28;20032;-47
2023/03/17 10:24:49;;;;;;;9.93;1.58;;;;;;;26.99;15.10;98406.28;5091504;28;20558;-47
2023/03/17 10:27:16;;;;;;;6.22;1.00;;;;;;;27.25;14.71;98409.03;5091603;28;20478;-47
2023/03/17 10:29:42;;;;;;;6.95;1.63;;;;;;;26.54;14.94;98403.78;5091562;28;20031;-46
2023/03/17 10:32:12;;;;;;;3.70;0.80;;;;;;;25.48;15.58;98393.59;5091556;28;20020;-47
2023/03/17 10:34:40;;;;;;;14.70;1.77;;;;;;;25.65;15.83;98417.09;5091460;28;20074;-47
2023/03/17 10:37:08;;;;;;;10.63;2.28;;;;;;;25.15;15.67;98398.38;5091615;28;20032;-47
2023/03/17 10:39:53;;;;;;;9.13;1.23;;;;;;;24.45;16.26;98409.19;5073336;28;20027;-47
2023/03/17 10:42:24;;;;;;;6.18;1.30;;;;;;;24.32;16.54;98415.34;5091673;28;20504;-46
2023/03/17 10:44:57;;;;;;;22.75;2.13;;;;;;;24.49;17.04;98402.13;5091702;28;20024;-47
2023/03/17 10:47:39;;;;;;;12.65;1.50;;;;;;;23.92;16.39;98375.59;5073281;28;20047;-47
2023/03/17 10:50:14;;;;;;;12.63;1.50;;;;;;;22.62;17.93;98410.94;5069718;28;20076;-46
2023/03/17 10:52:41;;;;;;;3.90;0.90;;;;;;;21.97;18.44;98401.41;5071157;28;20494;-47
2023/03/17 10:55:12;;;;;;;5.55;1.10;;;;;;;21.59;19.27;98409.25;5071130;28;20394;-46
2023/03/17 10:57:39;;;;;;;3.10;1.10;;;;;;;21.35;19.90;98406.47;5070975;28;20020;-46
2023/03/17 11:00:20;;;;;;;14.05;1.73;;;;;;;21.44;19.90;98401.34;5073044;28;20106;-47
2023/03/17 11:02:54;;;;;;;5.88;1.25;;;;;;;21.69;19.45;98363.75;5074783;28;20021;-47
2023/03/17 11:05:23;;;;;;;9.55;1.35;;;;;;;21.69;19.93;98403.81;5073369;28;20240;-47
2023/03/17 11:07:55;;;;;;;2.28;0.90;;;;;;;21.81;19.86;98378.59;5074509;28;20035;-47
2023/03/17 11:10:24;;;;;;;3.80;1.10;;;;;;;22.02;19.52;98347.16;5074817;28;20041;-46
2023/03/17 11:13:00;;;;;;;7.22;1.27;;;;;;;21.73;20.12;98327.41;5074387;28;20021;-46
2023/03/17 11:15:56;;;;;;;4.00;0.98;;;;;;;21.83;19.86;98336.38;5073030;28;20083;-47
2023/03/17 11:18:27;;;;;;;;;;;;;;;22.30;19.97;98367.72;5074871;28;20020;-47
2023/03/17 11:21:00;;;;;;;4.18;1.75;;;;;;;22.58;19.04;98380.47;5074412;28;19912;-46
2023/03/17 11:23:41;;;;;;;6.00;1.95;;;;;;;22.40;19.17;98356.09;5073049;28;20036;-46
2023/03/17 11:26:38;;;;;;;1.75;0.90;;;;;;;22.31;19.36;98365.81;5072952;28;20035;-46
2023/03/17 11:29:51;;;;;;;3.63;0.75;;;;;;;21.99;19.60;98305.75;5072877;28;20040;-47
2023/03/17 11:32:37;;;;;;;3.55;1.10;;;;;;;21.83;19.74;98371.09;4995842;28;20030;-47
2023/03/17 11:35:15;;;;;;;21.63;1.70;;;;;;;22.09;19.06;98358.28;5012264;28;20116;-46
2023/03/17 11:37:58;;;;;;;4.80;0.95;;;;;;;21.92;19.60;98302.63;5012156;28;20029;-47